Startpagina
METAR-TAF:

METAR-TAF

Vliegvelden :

Seoel-Incheon, Zuid-Korea

Incheon International Airport

breedte: 37-28N, lengte: 126-27E, hoogte: 7 m

Actueel weer

Dit bericht is 19 minuten geleden gemaakt, om 06:00 UTC
Wind 8 kt uit het noordwesten
Temperatuur 3°C
Vochtigheid 56%
Druk 1024 hPa
Zicht: 6000 m
Weinig wolken op 3000 ft
Gebroken wolken op 15000 ft

METAR: RKSI 180600Z 31008KT 6000 FEW030 BKN150 03/M05 Q1024 NOSIG

Tijdstip: 15:19 (06:19 UTC)

Verwachting

Dit bericht is 1 uur en het 19 minuten geleden gemaakt, om 05:00 UTC
Verwachting geldig van 18 om 06 UTC tot 19 om 12 UTC
Wind 7 kt uit het noordnoordwesten
Zicht: 6000 m
Verspreide wolken op 3000 ft
Gebroken wolken op 15000 ft
Wijzigt naar
van 18 om 16 UTC tot 18 om 17 UTC
Wind 6 kt uit het oostnoordoosten
Wijzigt naar
van 19 om 03 UTC tot 19 om 04 UTC
Wind 7 kt uit het westzuidwesten

TAF: RKSI 180500Z 1806/1912 33007KT 6000 SCT030 BKN150 TNM03/1822Z TX03/1905Z BECMG 1816/1817 07006KT BECMG 1903/1904 25007KT NSC

Waarnemingen en weersverwachtingen van meer dan 4000 vliegvelden (METAR en TAF).

De beschikbare stations zijn de gele en rode punten op de kaart.

Ga met uw muis naar het station om de naam te zien.

Klik dan om waarnemingen en weersverwachtingen te zien.

kaart wijzigen: klik op de groene knoppen met een zwart kruis om in te zoomen, op de groene knop met een streepje om uit te zoomen of op de groene pijlen voor aangrenzende kaarten.


METAR-TAF: